createdAt,value
2022-08-23T00:01:48.563Z,14.20
2022-08-23T00:04:21.497Z,17.23
2022-08-23T00:06:49.784Z,15.52
2022-08-23T00:09:17.468Z,16.33
2022-08-23T00:11:51.860Z,19.30
2022-08-23T00:14:20.963Z,14.20
2022-08-23T00:16:47.786Z,12.40
2022-08-23T00:19:17.684Z,11.10
2022-08-23T00:21:46.205Z,13.45
2022-08-23T00:24:15.122Z,12.48
2022-08-23T00:27:04.968Z,13.73
2022-08-23T00:29:37.333Z,13.37
2022-08-23T00:32:05.570Z,12.80
2022-08-23T00:34:32.287Z,16.67
2022-08-23T00:36:58.966Z,14.93
2022-08-23T00:39:26.042Z,15.35
2022-08-23T00:41:56.562Z,11.13
2022-08-23T00:44:52.185Z,15.00
2022-08-23T00:47:41.420Z,13.38
2022-08-23T00:50:30.373Z,13.55
2022-08-23T00:53:08.433Z,14.00
2022-08-23T00:55:36.731Z,14.70
2022-08-23T00:58:03.597Z,17.13
2022-08-23T01:00:30.921Z,15.88
2022-08-23T01:02:57.839Z,14.13
2022-08-23T01:05:33.141Z,21.08
2022-08-23T01:08:00.629Z,13.67
2022-08-23T01:10:37.290Z,15.15
2022-08-23T01:13:15.441Z,15.50
2022-08-23T01:15:48.723Z,20.27
2022-08-23T01:18:17.932Z,15.93
2022-08-23T01:21:21.916Z,21.10
2022-08-23T01:24:00.996Z,14.65
2022-08-23T01:26:28.447Z,14.45
2022-08-23T01:28:55.187Z,14.23
2022-08-23T01:31:23.809Z,12.90
2022-08-23T01:33:56.918Z,16.73
2022-08-23T01:36:23.609Z,15.35
2022-08-23T01:38:50.221Z,12.32
2022-08-23T01:41:17.131Z,13.40
2022-08-23T01:43:43.870Z,17.20
2022-08-23T01:46:13.825Z,11.50
2022-08-23T01:48:40.985Z,14.43
2022-08-23T01:51:08.017Z,13.35
2022-08-23T01:53:34.663Z,15.73
2022-08-23T01:56:04.230Z,15.70
2022-08-23T01:58:34.678Z,14.50
2022-08-23T02:01:02.057Z,17.52
2022-08-23T02:03:29.203Z,14.00
2022-08-23T02:05:57.916Z,13.48
2022-08-23T02:08:43.280Z,16.92
2022-08-23T02:11:14.645Z,15.73
2022-08-23T02:13:42.645Z,14.30
2022-08-23T02:16:09.552Z,15.98
2022-08-23T02:18:41.492Z,13.13
2022-08-23T02:21:10.365Z,14.27
2022-08-23T02:23:37.081Z,13.67
2022-08-23T02:26:03.988Z,15.00
2022-08-23T02:28:30.533Z,16.15
2022-08-23T02:30:57.096Z,15.25
2022-08-23T02:33:24.771Z,16.00
2022-08-23T02:35:51.367Z,14.30
2022-08-23T02:38:18.469Z,20.73
2022-08-23T02:40:45.106Z,17.13
2022-08-23T02:43:12.449Z,17.85
2022-08-23T02:45:39.074Z,17.13
2022-08-23T02:48:06.220Z,21.47
2022-08-23T02:50:32.853Z,16.58
2022-08-23T02:52:59.565Z,18.00
2022-08-23T02:55:26.933Z,15.80
2022-08-23T02:57:53.893Z,14.65
2022-08-23T03:00:21.527Z,17.57
2022-08-23T03:02:48.328Z,18.25
2022-08-23T03:05:15.522Z,20.25
2022-08-23T03:07:43.014Z,16.08
2022-08-23T03:10:10.494Z,20.55
2022-08-23T03:12:37.647Z,15.43
2022-08-23T03:15:05.756Z,19.80
2022-08-23T03:17:32.417Z,14.30
2022-08-23T03:19:59.127Z,18.02
2022-08-23T03:22:25.689Z,15.07
2022-08-23T03:24:52.575Z,13.37
2022-08-23T03:27:19.215Z,18.42
2022-08-23T03:29:45.758Z,20.55
2022-08-23T03:32:12.400Z,15.75
2022-08-23T03:34:42.118Z,17.33
2022-08-23T03:37:08.672Z,21.27
2022-08-23T03:39:35.294Z,23.25
2022-08-23T03:42:01.915Z,24.15
2022-08-23T03:44:28.618Z,26.50
2022-08-23T03:46:55.238Z,21.85
2022-08-23T03:49:22.189Z,21.97
2022-08-23T03:51:48.703Z,24.92
2022-08-23T03:54:15.484Z,20.67
2022-08-23T03:56:59.775Z,24.17
2022-08-23T03:59:28.006Z,25.50
2022-08-23T04:01:54.842Z,18.83
2022-08-23T04:04:22.480Z,23.70
2022-08-23T04:06:49.097Z,26.42
2022-08-23T04:09:16.914Z,20.98
2022-08-23T04:11:43.977Z,23.10
2022-08-23T04:14:11.186Z,23.40
2022-08-23T04:16:37.902Z,25.15
2022-08-23T04:19:10.120Z,22.05
2022-08-23T04:21:38.220Z,20.60
2022-08-23T04:24:05.037Z,22.25
2022-08-23T04:26:33.668Z,21.77
2022-08-23T04:29:00.804Z,22.65
2022-08-23T04:31:27.805Z,25.98
2022-08-23T04:34:01.963Z,23.58
2022-08-23T04:36:35.742Z,22.95
2022-08-23T04:39:03.534Z,19.63
2022-08-23T04:41:48.385Z,20.58
2022-08-23T04:44:15.756Z,16.77
2022-08-23T04:46:43.773Z,16.60
2022-08-23T04:49:12.138Z,22.35
2022-08-23T04:51:38.738Z,17.83
2022-08-23T04:54:06.309Z,15.88
2022-08-23T04:56:32.888Z,21.20
2022-08-23T04:58:59.746Z,20.17
2022-08-23T05:01:26.350Z,15.98
2022-08-23T05:03:53.364Z,14.97
2022-08-23T05:06:22.143Z,20.50
2022-08-23T05:08:49.277Z,18.65
2022-08-23T05:11:18.948Z,20.52
2022-08-23T05:13:45.568Z,15.73
2022-08-23T05:16:12.418Z,15.87
2022-08-23T05:18:39.025Z,18.80
2022-08-23T05:21:06.743Z,17.35
2022-08-23T05:23:33.713Z,18.05
2022-08-23T05:26:01.059Z,18.77
2022-08-23T05:28:31.152Z,16.27
2022-08-23T05:31:13.493Z,18.48
2022-08-23T05:33:42.159Z,17.27
2022-08-23T05:36:10.697Z,16.90
2022-08-23T05:38:37.603Z,19.08
2022-08-23T05:41:05.098Z,16.63
2022-08-23T05:43:32.540Z,17.20
2022-08-23T05:46:05.029Z,16.15
2022-08-23T05:48:34.189Z,18.27
2022-08-23T05:51:12.772Z,18.05
2022-08-23T05:53:40.222Z,19.70
2022-08-23T05:56:22.479Z,19.58
2022-08-23T05:58:52.143Z,20.63
2022-08-23T06:01:19.848Z,18.30
2022-08-23T06:03:47.588Z,20.95
2022-08-23T06:06:16.205Z,18.97
2022-08-23T06:08:44.626Z,20.40
2022-08-23T06:11:18.218Z,21.35
2022-08-23T06:13:56.119Z,18.40
2022-08-23T06:16:27.076Z,19.27
2022-08-23T06:18:55.262Z,13.77
2022-08-23T06:21:24.071Z,17.10
2022-08-23T06:23:51.275Z,15.25
2022-08-23T06:26:17.712Z,17.70
2022-08-23T06:28:50.972Z,19.92
2022-08-23T06:31:38.313Z,12.63
2022-08-23T06:34:04.927Z,15.02
2022-08-23T06:36:31.766Z,12.73
2022-08-23T06:38:58.378Z,14.52
2022-08-23T06:41:25.097Z,11.75
2022-08-23T06:43:51.730Z,13.73
2022-08-23T06:46:24.316Z,10.95
2022-08-23T06:48:51.940Z,13.20
2022-08-23T06:51:26.623Z,12.27
2022-08-23T06:53:55.230Z,14.30
2022-08-23T06:56:24.364Z,14.50
2022-08-23T06:58:51.696Z,12.32
2022-08-23T07:01:45.221Z,13.00
2022-08-23T07:04:16.489Z,17.40
2022-08-23T07:06:43.419Z,15.07
2022-08-23T07:09:10.047Z,13.90
2022-08-23T07:11:36.829Z,11.55
2022-08-23T07:14:07.065Z,13.45
2022-08-23T07:16:38.648Z,16.00
2022-08-23T07:19:05.953Z,17.35
2022-08-23T07:21:33.447Z,17.77
2022-08-23T07:23:59.982Z,15.15
2022-08-23T07:26:26.695Z,15.93
2022-08-23T07:28:55.462Z,13.02
2022-08-23T07:31:30.570Z,14.48
2022-08-23T07:34:02.597Z,15.27
2022-08-23T07:36:31.896Z,13.65
2022-08-23T07:38:59.498Z,12.40
2022-08-23T07:41:31.050Z,12.57
2022-08-23T07:44:02.756Z,11.18
2022-08-23T07:46:31.332Z,15.03
2022-08-23T07:49:00.006Z,11.80
2022-08-23T07:51:28.246Z,12.50
2022-08-23T07:53:54.848Z,11.52
2022-08-23T07:56:21.676Z,11.73
2022-08-23T07:58:50.103Z,9.17
2022-08-23T08:01:16.748Z,9.45
2022-08-23T08:03:45.284Z,12.15
2022-08-23T08:06:16.173Z,10.25
2022-08-23T08:08:43.451Z,12.88
2022-08-23T08:11:11.957Z,13.10
2022-08-23T08:13:40.276Z,10.98
2022-08-23T08:16:08.589Z,10.38
2022-08-23T08:18:38.167Z,11.48
2022-08-23T08:21:05.439Z,10.52
2022-08-23T08:23:31.995Z,11.70
2022-08-23T08:26:01.311Z,11.27
2022-08-23T08:28:27.970Z,9.18
2022-08-23T08:30:54.566Z,13.98
2022-08-23T08:33:21.146Z,8.98
2022-08-23T08:35:57.409Z,10.47
2022-08-23T08:38:28.827Z,9.77
2022-08-23T08:41:16.578Z,9.55
2022-08-23T08:44:03.830Z,12.50
2022-08-23T08:46:45.737Z,9.82
2022-08-23T08:49:32.985Z,9.40
2022-08-23T08:52:16.602Z,10.55
2022-08-23T08:54:48.210Z,12.52
2022-08-23T08:57:22.626Z,11.55
2022-08-23T09:00:01.937Z,11.57
2022-08-23T09:02:33.907Z,12.87
2022-08-23T09:05:09.579Z,15.30
2022-08-23T09:08:20.870Z,13.00
2022-08-23T09:11:00.572Z,12.75
2022-08-23T09:13:55.428Z,12.88
2022-08-23T09:16:40.936Z,14.47
2022-08-23T09:19:07.910Z,12.27
2022-08-23T09:21:55.361Z,15.10
2022-08-23T09:24:22.732Z,13.07
2022-08-23T09:26:50.129Z,15.20
2022-08-23T09:29:24.194Z,13.40
2022-08-23T09:31:58.432Z,16.00
2022-08-23T09:34:30.868Z,13.85
2022-08-23T09:37:06.430Z,13.90
2022-08-23T09:39:36.484Z,15.73
2022-08-23T09:42:03.914Z,18.23
2022-08-23T09:44:42.215Z,13.75
2022-08-23T09:47:17.031Z,13.18
2022-08-23T09:49:47.701Z,18.58
2022-08-23T09:52:22.147Z,15.68
2022-08-23T09:55:26.460Z,11.23
2022-08-23T09:57:54.240Z,12.48
2022-08-23T10:00:27.951Z,11.65
2022-08-23T10:03:20.674Z,13.98
2022-08-23T10:05:52.563Z,16.23
2022-08-23T10:08:43.217Z,12.30
2022-08-23T10:11:24.255Z,14.43
2022-08-23T10:13:51.539Z,12.95
2022-08-23T10:16:24.391Z,11.98
2022-08-23T10:18:57.620Z,12.77
2022-08-23T10:21:37.848Z,11.77
2022-08-23T10:24:27.234Z,10.85
2022-08-23T10:27:33.613Z,12.10
2022-08-23T10:30:08.649Z,10.75
2022-08-23T10:33:14.418Z,14.73
2022-08-23T10:36:13.295Z,12.73
2022-08-23T10:38:40.158Z,9.75
2022-08-23T10:41:06.611Z,12.38
2022-08-23T10:44:09.023Z,8.75
2022-08-23T10:46:48.617Z,11.10
2022-08-23T10:49:16.431Z,11.63
2022-08-23T10:51:51.726Z,9.23
2022-08-23T10:54:34.815Z,10.85
2022-08-23T10:57:04.750Z,11.90
2022-08-23T10:59:32.520Z,9.60
2022-08-23T11:02:07.866Z,9.07
2022-08-23T11:04:43.491Z,10.23
2022-08-23T11:07:19.539Z,11.30
2022-08-23T11:09:58.441Z,11.93
2022-08-23T11:12:29.165Z,9.93
2022-08-23T11:14:55.950Z,10.50
2022-08-23T11:17:40.461Z,9.48
2022-08-23T11:20:11.776Z,11.52
2022-08-23T11:22:56.540Z,9.90
2022-08-23T11:25:25.887Z,9.52
2022-08-23T11:28:30.453Z,8.40
2022-08-23T11:30:57.579Z,8.68
2022-08-23T11:33:31.399Z,8.23
2022-08-23T11:36:09.967Z,9.65
2022-08-23T11:38:48.693Z,6.63
2022-08-23T11:41:15.207Z,10.20
2022-08-23T11:43:45.201Z,8.98
2022-08-23T11:46:27.188Z,7.10
2022-08-23T11:49:22.425Z,5.93
2022-08-23T11:52:10.635Z,6.57
2022-08-23T11:54:55.381Z,5.83
2022-08-23T11:57:43.631Z,6.70
2022-08-23T12:00:52.619Z,4.95
2022-08-23T12:03:27.874Z,7.30
2022-08-23T12:05:54.498Z,5.80
2022-08-23T12:08:22.812Z,5.63
2022-08-23T12:10:49.304Z,4.15
2022-08-23T12:13:18.735Z,3.95
2022-08-23T12:16:07.330Z,5.15
2022-08-23T12:18:48.900Z,5.78
2022-08-23T12:21:23.723Z,4.70
2022-08-23T12:23:54.879Z,5.10
2022-08-23T12:26:21.324Z,4.63
2022-08-23T12:28:52.465Z,4.93
2022-08-23T12:31:37.970Z,5.70
2022-08-23T12:34:19.613Z,4.27
2022-08-23T12:36:56.987Z,4.18
2022-08-23T12:39:40.969Z,3.50
2022-08-23T12:42:15.861Z,3.83
2022-08-23T12:44:58.053Z,5.55
2022-08-23T12:47:24.727Z,5.17
2022-08-23T12:50:04.354Z,4.82
2022-08-23T12:52:34.894Z,4.43
2022-08-23T12:55:01.754Z,4.13
2022-08-23T12:57:38.210Z,3.40
2022-08-23T13:00:19.669Z,7.33
2022-08-23T13:02:57.858Z,3.92
2022-08-23T13:05:44.234Z,4.57
2022-08-23T13:08:19.441Z,5.75
2022-08-23T13:10:55.803Z,5.22
2022-08-23T13:13:26.264Z,5.97
2022-08-23T13:15:56.553Z,5.00
2022-08-23T13:18:43.753Z,3.85
2022-08-23T13:21:23.492Z,4.78
2022-08-23T13:23:52.133Z,3.28
2022-08-23T13:26:37.392Z,2.73
2022-08-23T13:29:23.629Z,3.00
2022-08-23T13:32:03.144Z,4.78
2022-08-23T13:34:39.307Z,2.75
2022-08-23T13:37:19.746Z,6.05
2022-08-23T13:39:52.307Z,3.87
2022-08-23T13:42:48.514Z,4.55
2022-08-23T13:45:44.127Z,3.20
2022-08-23T13:48:15.835Z,3.67
2022-08-23T13:50:43.030Z,4.03
2022-08-23T13:53:16.954Z,4.43
2022-08-23T13:55:48.745Z,5.43
2022-08-23T13:58:26.427Z,3.60
2022-08-23T14:00:55.486Z,5.57
2022-08-23T14:03:23.439Z,5.03
2022-08-23T14:05:50.211Z,5.27
2022-08-23T14:08:16.942Z,5.82
2022-08-23T14:10:43.879Z,4.88
2022-08-23T14:13:11.304Z,4.38
2022-08-23T14:18:26.859Z,3.57
2022-08-23T14:20:53.597Z,3.97
2022-08-23T14:23:20.153Z,4.60
2022-08-23T14:25:48.696Z,3.67
2022-08-23T14:28:15.293Z,5.35
2022-08-23T14:30:41.891Z,5.10
2022-08-23T14:33:08.461Z,4.10
2022-08-23T14:35:35.135Z,4.95
2022-08-23T14:38:04.000Z,4.63
2022-08-23T14:40:31.799Z,5.35
2022-08-23T14:42:58.857Z,4.73
2022-08-23T14:45:26.084Z,5.88
2022-08-23T14:47:53.038Z,3.97
2022-08-23T14:50:19.813Z,6.15
2022-08-23T14:52:47.713Z,4.45
2022-08-23T14:55:15.393Z,5.27
2022-08-23T14:57:42.145Z,3.17
2022-08-23T15:00:13.988Z,4.93
2022-08-23T15:02:46.304Z,4.97
2022-08-23T15:05:14.314Z,6.15
2022-08-23T15:07:40.939Z,7.13
2022-08-23T15:10:10.198Z,7.10
2022-08-23T15:15:24.120Z,5.30
2022-08-23T15:17:58.721Z,6.72
2022-08-23T15:20:29.755Z,4.17
2022-08-23T15:22:56.404Z,4.75
2022-08-23T15:25:25.645Z,6.35
2022-08-23T15:27:52.676Z,4.30
2022-08-23T15:30:19.607Z,4.97
2022-08-23T15:32:52.641Z,5.47
2022-08-23T15:35:25.035Z,4.22
2022-08-23T15:37:53.789Z,5.40
2022-08-23T15:40:20.745Z,3.88
2022-08-23T15:42:47.384Z,4.75
2022-08-23T15:45:14.023Z,5.43
2022-08-23T15:47:46.648Z,6.85
2022-08-23T15:50:13.647Z,6.82
2022-08-23T15:52:40.239Z,4.53
2022-08-23T15:55:07.220Z,6.22
2022-08-23T15:57:43.097Z,4.13
2022-08-23T16:00:12.071Z,7.82
2022-08-23T16:03:04.222Z,6.65
2022-08-23T16:05:25.633Z,8.52
2022-08-23T16:07:56.581Z,5.07
2022-08-23T16:10:26.182Z,4.70
2022-08-23T16:12:55.309Z,6.97
2022-08-23T16:15:21.931Z,5.38
2022-08-23T16:17:48.642Z,6.53
2022-08-23T16:20:15.615Z,4.90
2022-08-23T16:22:42.181Z,4.77
2022-08-23T16:25:09.120Z,3.72
2022-08-23T16:27:35.977Z,5.18
2022-08-23T16:30:06.904Z,9.15
2022-08-23T16:32:33.469Z,5.05
2022-08-23T16:35:00.069Z,3.87
2022-08-23T16:37:26.600Z,5.88
2022-08-23T16:39:53.386Z,5.22
2022-08-23T16:42:20.244Z,5.07
2022-08-23T16:44:47.002Z,4.80
2022-08-23T16:47:15.818Z,4.67
2022-08-23T16:49:43.665Z,2.67
2022-08-23T16:52:11.165Z,5.03
2022-08-23T16:54:38.917Z,3.80
2022-08-23T16:57:06.109Z,4.07
2022-08-23T16:59:34.428Z,2.83
2022-08-23T17:02:11.182Z,3.08
2022-08-23T17:04:38.235Z,3.22
2022-08-23T17:07:04.785Z,2.42
2022-08-23T17:09:31.345Z,6.50
2022-08-23T17:11:58.578Z,2.83
2022-08-23T17:14:26.212Z,3.90
2022-08-23T17:16:53.190Z,3.33
2022-08-23T17:19:19.923Z,4.38
2022-08-23T17:21:46.737Z,2.95
2022-08-23T17:24:13.583Z,3.00
2022-08-23T17:26:40.458Z,8.40
2022-08-23T17:29:07.467Z,6.40
2022-08-23T17:31:34.148Z,3.45
2022-08-23T17:34:03.834Z,4.43
2022-08-23T17:36:47.722Z,3.53
2022-08-23T17:39:17.529Z,4.63
2022-08-23T17:41:45.633Z,4.55
2022-08-23T17:44:13.021Z,4.72
2022-08-23T17:46:42.276Z,3.60
2022-08-23T17:49:10.523Z,5.30
2022-08-23T17:51:37.628Z,3.78
2022-08-23T17:54:05.284Z,7.70
2022-08-23T17:56:32.029Z,7.00
2022-08-23T17:58:58.935Z,6.03
2022-08-23T18:01:25.654Z,3.63
2022-08-23T18:03:52.345Z,6.80
2022-08-23T18:06:19.699Z,6.68
2022-08-23T18:08:47.225Z,4.53
2022-08-23T18:11:14.924Z,6.03
2022-08-23T18:13:41.511Z,3.07
2022-08-23T18:16:08.485Z,3.67
2022-08-23T18:18:35.175Z,3.30
2022-08-23T18:21:09.426Z,2.97
2022-08-23T18:23:36.098Z,4.63
2022-08-23T18:26:30.013Z,5.17
2022-08-23T18:28:57.454Z,8.18
2022-08-23T18:31:24.412Z,2.92
2022-08-23T18:33:51.041Z,2.67
2022-08-23T18:36:17.689Z,3.83
2022-08-23T18:38:44.278Z,3.27
2022-08-23T18:41:13.357Z,2.42
2022-08-23T18:43:40.733Z,3.75
2022-08-23T18:46:08.907Z,3.42
2022-08-23T18:48:36.582Z,2.83
2022-08-23T18:51:04.408Z,3.07
2022-08-23T18:53:30.975Z,4.05
2022-08-23T18:55:58.292Z,6.15
2022-08-23T18:58:25.198Z,4.03
2022-08-23T19:00:53.447Z,3.22
2022-08-23T19:03:20.633Z,3.13
2022-08-23T19:05:47.192Z,2.85
2022-08-23T19:08:14.437Z,7.03
2022-08-23T19:10:42.955Z,9.30
2022-08-23T19:13:10.343Z,4.38
2022-08-23T19:15:38.153Z,4.97
2022-08-23T19:18:04.821Z,3.75
2022-08-23T19:20:31.487Z,3.92
2022-08-23T19:22:58.799Z,3.47
2022-08-23T19:25:25.889Z,7.07
2022-08-23T19:27:52.564Z,4.17
2022-08-23T19:30:19.248Z,2.45
2022-08-23T19:32:46.803Z,5.32
2022-08-23T19:35:14.280Z,2.20
2022-08-23T19:37:40.979Z,6.40
2022-08-23T19:40:08.170Z,3.00
2022-08-23T19:42:37.096Z,3.70
2022-08-23T19:45:05.407Z,3.40
2022-08-23T19:47:32.469Z,3.90
2022-08-23T19:49:59.326Z,5.57
2022-08-23T19:52:26.463Z,3.13
2022-08-23T19:54:53.301Z,2.55
2022-08-23T19:57:20.268Z,3.90
2022-08-23T19:59:46.889Z,3.90
2022-08-23T20:02:14.506Z,5.53
2022-08-23T20:04:41.264Z,3.23
2022-08-23T20:07:07.848Z,1.92
2022-08-23T20:09:34.652Z,5.15
2022-08-23T20:12:01.718Z,5.10
2022-08-23T20:14:30.978Z,5.88
2022-08-23T20:16:57.631Z,5.23
2022-08-23T20:19:25.441Z,3.58
2022-08-23T20:21:52.026Z,5.65
2022-08-23T20:24:28.797Z,4.63
2022-08-23T20:27:06.070Z,6.00
2022-08-23T20:29:32.978Z,4.80
2022-08-23T20:32:00.266Z,8.05
2022-08-23T20:34:28.453Z,3.28
2022-08-23T20:36:56.259Z,11.32
2022-08-23T20:39:24.453Z,4.00
2022-08-23T20:41:52.430Z,7.93
2022-08-23T20:44:24.992Z,8.32
2022-08-23T20:46:54.861Z,6.18
2022-08-23T20:49:25.956Z,6.10
2022-08-23T20:51:52.552Z,7.43
2022-08-23T20:54:19.296Z,5.23
2022-08-23T20:56:46.088Z,5.75
2022-08-23T20:59:14.675Z,4.68
2022-08-23T21:01:41.332Z,4.80
2022-08-23T21:04:07.950Z,3.97
2022-08-23T21:06:45.288Z,6.23
2022-08-23T21:09:17.021Z,5.50
2022-08-23T21:11:44.229Z,4.82
2022-08-23T21:14:11.076Z,3.47
2022-08-23T21:16:37.953Z,8.18
2022-08-23T21:19:05.097Z,6.60
2022-08-23T21:21:32.221Z,5.45
2022-08-23T21:23:58.924Z,4.63
2022-08-23T21:26:26.036Z,2.78
2022-08-23T21:28:53.115Z,5.32
2022-08-23T21:31:25.283Z,4.03
2022-08-23T21:33:54.159Z,6.55
2022-08-23T21:36:22.485Z,7.28
2022-08-23T21:38:49.825Z,3.80
2022-08-23T21:41:39.424Z,4.43
2022-08-23T21:44:09.868Z,5.33
2022-08-23T21:46:36.692Z,10.75
2022-08-23T21:49:04.511Z,5.15
2022-08-23T21:51:31.200Z,6.97
2022-08-23T21:54:02.762Z,5.80
2022-08-23T21:56:30.202Z,5.63
2022-08-23T21:59:01.617Z,5.28
2022-08-23T22:01:30.461Z,4.32
2022-08-23T22:03:57.411Z,8.30
2022-08-23T22:06:24.830Z,4.72
2022-08-23T22:08:51.446Z,8.10
2022-08-23T22:11:18.300Z,5.30
2022-08-23T22:13:45.020Z,5.60
2022-08-23T22:16:12.045Z,4.55
2022-08-23T22:18:38.921Z,4.65
2022-08-23T22:21:07.015Z,5.10
2022-08-23T22:23:36.253Z,6.03
2022-08-23T22:26:06.854Z,5.57
2022-08-23T22:28:34.215Z,5.40
2022-08-23T22:31:03.354Z,7.10
2022-08-23T22:33:30.223Z,5.80
2022-08-23T22:36:10.790Z,5.97
2022-08-23T22:38:38.701Z,8.93
2022-08-23T22:41:05.837Z,6.32
2022-08-23T22:43:32.651Z,6.90
2022-08-23T22:46:00.987Z,9.23
2022-08-23T22:48:30.880Z,5.95
2022-08-23T22:51:11.671Z,6.13
2022-08-23T22:53:41.301Z,5.25
2022-08-23T22:56:12.270Z,10.50
2022-08-23T22:58:40.409Z,7.20
2022-08-23T23:01:13.450Z,6.20
2022-08-23T23:03:41.308Z,7.70
2022-08-23T23:06:08.630Z,6.70
2022-08-23T23:08:35.170Z,9.02
2022-08-23T23:11:05.910Z,6.70
2022-08-23T23:13:34.113Z,9.40
2022-08-23T23:16:06.982Z,9.77
2022-08-23T23:18:34.445Z,9.02
2022-08-23T23:21:03.953Z,9.20
2022-08-23T23:23:32.398Z,11.47
2022-08-23T23:25:59.034Z,12.32
2022-08-23T23:28:26.366Z,8.90
2022-08-23T23:30:54.436Z,10.80
2022-08-23T23:33:22.005Z,9.77
2022-08-23T23:35:49.021Z,11.77
2022-08-23T23:38:15.818Z,11.50
2022-08-23T23:40:42.973Z,16.17
2022-08-23T23:43:12.944Z,12.30
2022-08-23T23:45:39.908Z,13.45
2022-08-23T23:48:08.127Z,10.73
2022-08-23T23:50:35.591Z,9.20
2022-08-23T23:53:02.583Z,11.68
2022-08-23T23:55:29.276Z,8.77
2022-08-23T23:57:56.275Z,8.13
